createdAt,value
2023-09-29T00:00:04.982Z,1022.59
2023-09-29T00:16:01.728Z,1022.63
2023-09-29T00:31:02.424Z,1022.52
2023-09-29T00:46:03.472Z,1022.46
2023-09-29T01:00:04.599Z,1022.42
2023-09-29T01:16:00.703Z,1022.39
2023-09-29T01:31:01.649Z,1022.52
2023-09-29T01:46:02.863Z,1022.56
2023-09-29T02:00:03.931Z,1022.49
2023-09-29T02:16:05.093Z,1022.46
2023-09-29T02:31:01.153Z,1022.49
2023-09-29T02:46:02.476Z,1022.59
2023-09-29T03:00:03.318Z,1022.56
2023-09-29T03:16:04.313Z,1022.52
2023-09-29T03:31:05.296Z,1022.52
2023-09-29T03:46:01.442Z,1022.52
2023-09-29T04:00:02.603Z,1022.56
2023-09-29T04:16:03.665Z,1022.59
2023-09-29T04:31:04.758Z,1022.52
2023-09-29T04:46:00.801Z,1022.52
2023-09-29T05:00:01.779Z,1022.49
2023-09-29T05:16:03.062Z,1022.56
2023-09-29T05:31:04.498Z,1022.73
2023-09-29T05:46:00.815Z,1022.86
2023-09-29T06:00:01.683Z,1023
2023-09-29T06:16:02.934Z,1023.13
2023-09-29T06:31:04.008Z,1023.23
2023-09-29T06:46:05.089Z,1023.34
2023-09-29T07:00:01.116Z,1023.4
2023-09-29T07:16:02.140Z,1023.44
2023-09-29T07:31:03.472Z,1023.44
2023-09-29T07:46:04.417Z,1023.47
2023-09-29T08:00:05.311Z,1023.44
2023-09-29T08:16:01.376Z,1023.4
2023-09-29T08:31:02.917Z,1023.27
2023-09-29T08:46:03.874Z,1023.27
2023-09-29T09:00:05.264Z,1023.2
2023-09-29T09:16:00.970Z,1023.07
2023-09-29T09:31:02.376Z,1023
2023-09-29T09:46:03.577Z,1022.86
2023-09-29T10:00:04.442Z,1022.66
2023-09-29T10:16:14.139Z,1022.49
2023-09-29T10:31:01.571Z,1022.39
2023-09-29T10:46:02.715Z,1022.32
2023-09-29T11:00:03.965Z,1022.18
2023-09-29T11:16:05.061Z,1021.95
2023-09-29T11:31:01.409Z,1021.61
2023-09-29T11:46:02.632Z,1021.44
2023-09-29T12:00:03.542Z,1021.27
2023-09-29T12:16:04.593Z,1021.1
2023-09-29T12:31:00.590Z,1020.93
2023-09-29T12:46:01.756Z,1020.66
2023-09-29T13:00:02.854Z,1020.46
2023-09-29T13:16:04.178Z,1020.42
2023-09-29T13:31:05.243Z,1020.22
2023-09-29T13:46:01.132Z,1020.12
2023-09-29T14:00:02.228Z,1020.02
2023-09-29T14:16:03.269Z,1019.95
2023-09-29T14:31:04.434Z,1019.85
2023-09-29T14:46:00.425Z,1019.71
2023-09-29T15:00:01.292Z,1019.68
2023-09-29T15:16:02.533Z,1019.58
2023-09-29T15:31:03.940Z,1019.61
2023-09-29T15:46:04.899Z,1019.65
2023-09-29T16:00:00.722Z,1019.75
2023-09-29T16:16:01.804Z,1019.85
2023-09-29T16:31:02.972Z,1019.98
2023-09-29T16:46:04.208Z,1020.19
2023-09-29T17:00:05.196Z,1020.25
2023-09-29T17:16:01.302Z,1020.36
2023-09-29T17:31:02.604Z,1020.63
2023-09-29T17:46:03.731Z,1020.63
2023-09-29T18:00:04.750Z,1020.73
2023-09-29T18:16:00.985Z,1020.9
2023-09-29T18:31:02.004Z,1021.07
2023-09-29T18:46:03.149Z,1021.17
2023-09-29T19:00:04.259Z,1021.41
2023-09-29T19:16:00.282Z,1021.54
2023-09-29T19:31:01.242Z,1021.74
2023-09-29T19:46:02.339Z,1021.74
2023-09-29T20:00:03.606Z,1021.78
2023-09-29T20:16:04.818Z,1021.85
2023-09-29T20:31:00.770Z,1021.95
2023-09-29T20:46:01.880Z,1021.88
2023-09-29T21:00:03.319Z,1021.91
2023-09-29T21:16:04.390Z,1022.02
2023-09-29T21:31:00.443Z,1021.95
2023-09-29T21:46:01.667Z,1022.02
2023-09-29T22:00:02.769Z,1022.12
2023-09-29T22:16:04.029Z,1022.25
2023-09-29T22:31:05.143Z,1022.12
2023-09-29T22:46:01.235Z,1021.91
2023-09-29T23:00:02.096Z,1021.98
2023-09-29T23:16:03.799Z,1022.05
2023-09-29T23:31:04.762Z,1022.08
2023-09-29T23:46:00.860Z,1022.32
